createdAt,value
2023-04-01T00:00:54.266Z,89.14
2023-04-01T00:01:56.296Z,88.88
2023-04-01T00:02:58.093Z,89.01
2023-04-01T00:04:00.317Z,89.07
2023-04-01T00:05:02.857Z,89.28
2023-04-01T00:06:04.640Z,89.13
2023-04-01T00:07:06.447Z,89.26
2023-04-01T00:08:08.052Z,89.23
2023-04-01T00:09:09.631Z,89.23
2023-04-01T00:10:12.177Z,89.03
2023-04-01T00:11:14.150Z,89.21
2023-04-01T00:12:15.841Z,89.29
2023-04-01T00:13:17.585Z,89.12
2023-04-01T00:14:19.208Z,89.14
2023-04-01T00:15:20.940Z,89.26
2023-04-01T00:16:22.870Z,89.20
2023-04-01T00:17:24.663Z,89.12
2023-04-01T00:18:26.583Z,89.01
2023-04-01T00:19:28.222Z,89.16
2023-04-01T00:20:30.421Z,89.05
2023-04-01T00:21:32.104Z,89.03
2023-04-01T00:22:34.932Z,88.85
2023-04-01T00:23:37.038Z,89.09
2023-04-01T00:24:39.453Z,89.17
2023-04-01T00:25:41.132Z,89.23
2023-04-01T00:26:43.419Z,89.35
2023-04-01T00:27:45.298Z,89.48
2023-04-01T00:28:47.113Z,89.67
2023-04-01T00:29:48.786Z,89.78
2023-04-01T00:30:50.367Z,89.39
2023-04-01T00:31:52.123Z,89.45
2023-04-01T00:32:54.424Z,89.48
2023-04-01T00:33:56.086Z,89.56
2023-04-01T00:34:59.981Z,89.54
2023-04-01T00:36:12.138Z,89.57
2023-04-01T00:37:13.859Z,89.53
2023-04-01T00:38:15.537Z,89.40
2023-04-01T00:39:17.540Z,89.35
2023-04-01T00:40:24.382Z,89.30
2023-04-01T00:41:27.213Z,89.07
2023-04-01T00:42:29.532Z,89.04
2023-04-01T00:43:31.413Z,89.30
2023-04-01T00:44:34.306Z,89.25
2023-04-01T00:45:43.449Z,88.93
2023-04-01T00:46:45.134Z,89.16
2023-04-01T00:47:46.851Z,89.07
2023-04-01T00:48:49.944Z,89.07
2023-04-01T00:49:52.344Z,89.14
2023-04-01T00:50:57.654Z,89.36
2023-04-01T00:52:00.429Z,89.29
2023-04-01T00:53:02.135Z,89.38
2023-04-01T00:54:04.791Z,89.41
2023-04-01T00:55:06.762Z,89.16
2023-04-01T00:56:27.993Z,89.19
2023-04-01T00:57:32.414Z,88.99
2023-04-01T00:58:36.153Z,89.26
2023-04-01T00:59:43.087Z,88.99
2023-04-01T01:00:44.754Z,88.89
2023-04-01T01:01:46.531Z,88.69
2023-04-01T01:02:48.247Z,88.74
2023-04-01T01:03:49.915Z,88.82
2023-04-01T01:04:51.618Z,88.95
2023-04-01T01:06:23.275Z,88.69
2023-04-01T01:07:33.713Z,88.96
2023-04-01T01:08:41.173Z,88.92
2023-04-01T01:10:09.340Z,88.86
2023-04-01T01:11:11.480Z,89.25
2023-04-01T01:12:22.059Z,89.87
2023-04-01T01:13:33.137Z,90.09
2023-04-01T01:14:52.260Z,90.45
2023-04-01T01:15:56.380Z,90.66
2023-04-01T01:17:03.223Z,90.63
2023-04-01T01:18:17.131Z,90.91
2023-04-01T01:19:51.445Z,91.13
2023-04-01T01:21:23.613Z,91.12
2023-04-01T01:23:19.286Z,91.02
2023-04-01T01:24:29.213Z,90.95
2023-04-01T01:26:09.141Z,90.98
2023-04-01T01:27:20.542Z,91.02
2023-04-01T01:28:47.521Z,90.74
2023-04-01T01:30:10.790Z,90.67
2023-04-01T01:31:15.957Z,90.84
2023-04-01T01:32:48.096Z,90.89
2023-04-01T01:34:14.069Z,90.89
2023-04-01T01:35:38.450Z,91.00
2023-04-01T01:36:40.185Z,91.14
2023-04-01T01:37:42.166Z,91.23
2023-04-01T01:38:43.783Z,91.37
2023-04-01T01:39:54.469Z,91.94
2023-04-01T01:40:57.650Z,91.99
2023-04-01T01:42:01.220Z,92.04
2023-04-01T01:43:09.360Z,92.06
2023-04-01T01:44:12.306Z,92.16
2023-04-01T01:45:13.976Z,92.18
2023-04-01T01:46:17.913Z,92.07
2023-04-01T01:47:19.552Z,91.88
2023-04-01T01:48:21.474Z,91.99
2023-04-01T01:49:23.124Z,91.86
2023-04-01T01:50:25.395Z,91.42
2023-04-01T01:51:27.566Z,91.20
2023-04-01T01:52:29.484Z,90.69
2023-04-01T01:53:31.124Z,90.58
2023-04-01T01:54:32.703Z,90.45
2023-04-01T01:55:36.654Z,90.24
2023-04-01T01:56:38.304Z,89.91
2023-04-01T01:57:39.956Z,89.42
2023-04-01T01:58:44.681Z,89.38
2023-04-01T01:59:46.408Z,88.74
2023-04-01T02:00:51.825Z,88.48
2023-04-01T02:01:54.745Z,88.17
2023-04-01T02:02:56.640Z,87.75
2023-04-01T02:03:58.869Z,87.26
2023-04-01T02:05:00.681Z,87.08
2023-04-01T02:06:03.350Z,86.82
2023-04-01T02:07:06.820Z,86.86
2023-04-01T02:08:17.385Z,86.27
2023-04-01T02:09:19.006Z,86.14
2023-04-01T02:10:20.870Z,85.77
2023-04-01T02:11:49.930Z,85.68
2023-04-01T02:12:51.845Z,85.61
2023-04-01T02:13:54.408Z,85.32
2023-04-01T02:15:01.762Z,85.23
2023-04-01T02:16:05.936Z,84.96
2023-04-01T02:17:09.965Z,84.66
2023-04-01T02:18:12.281Z,84.20
2023-04-01T02:19:14.367Z,84.40
2023-04-01T02:20:21.713Z,84.46
2023-04-01T02:21:23.906Z,84.01
2023-04-01T02:22:30.008Z,84.15
2023-04-01T02:23:31.657Z,83.85
2023-04-01T02:24:33.279Z,84.03
2023-04-01T02:25:36.479Z,83.75
2023-04-01T02:26:38.119Z,83.70
2023-04-01T02:27:40.221Z,83.37
2023-04-01T02:28:42.025Z,83.98
2023-04-01T02:29:43.699Z,83.81
2023-04-01T02:30:45.520Z,83.76
2023-04-01T02:31:47.331Z,83.69
2023-04-01T02:32:49.284Z,83.98
2023-04-01T02:33:50.929Z,83.76
2023-04-01T02:34:52.602Z,83.71
2023-04-01T02:35:54.252Z,84.06
2023-04-01T02:36:55.940Z,83.78
2023-04-01T02:37:57.565Z,84.18
2023-04-01T02:39:03.071Z,84.14
2023-04-01T02:40:07.540Z,84.00
2023-04-01T02:41:09.240Z,84.10
2023-04-01T02:42:11.480Z,83.69
2023-04-01T02:43:13.132Z,83.93
2023-04-01T02:44:15.538Z,83.78
2023-04-01T02:45:17.177Z,83.97
2023-04-01T02:46:18.872Z,83.68
2023-04-01T02:47:20.520Z,84.01
2023-04-01T02:48:22.049Z,83.79
2023-04-01T02:49:23.713Z,84.36
2023-04-01T02:50:25.500Z,84.06
2023-04-01T02:51:27.075Z,83.78
2023-04-01T02:52:29.465Z,84.01
2023-04-01T02:53:31.128Z,84.17
2023-04-01T02:54:32.725Z,83.92
2023-04-01T02:55:34.980Z,84.38
2023-04-01T02:56:36.905Z,83.97
2023-04-01T02:57:38.639Z,84.03
2023-04-01T02:58:40.420Z,84.09
2023-04-01T02:59:42.032Z,83.78
2023-04-01T03:00:43.781Z,83.89
2023-04-01T03:01:45.505Z,83.58
2023-04-01T03:02:47.212Z,83.67
2023-04-01T03:03:48.959Z,83.56
2023-04-01T03:04:50.767Z,83.52
2023-04-01T03:05:52.363Z,83.48
2023-04-01T03:06:54.032Z,83.15
2023-04-01T03:07:55.883Z,83.26
2023-04-01T03:08:57.648Z,83.24
2023-04-01T03:09:59.237Z,82.81
2023-04-01T03:11:00.804Z,82.74
2023-04-01T03:12:02.714Z,82.73
2023-04-01T03:13:04.401Z,82.74
2023-04-01T03:14:06.093Z,82.90
2023-04-01T03:15:11.501Z,82.91
2023-04-01T03:16:13.437Z,82.61
2023-04-01T03:17:15.148Z,82.34
2023-04-01T03:18:16.736Z,82.45
2023-04-01T03:19:18.353Z,82.61
2023-04-01T03:20:21.293Z,82.53
2023-04-01T03:21:23.801Z,82.52
2023-04-01T03:22:25.561Z,82.09
2023-04-01T03:23:27.308Z,82.23
2023-04-01T03:24:28.959Z,82.52
2023-04-01T03:25:31.833Z,82.38
2023-04-01T03:26:33.942Z,82.47
2023-04-01T03:27:36.665Z,82.16
2023-04-01T03:28:38.301Z,82.54
2023-04-01T03:29:40.057Z,82.40
2023-04-01T03:30:41.711Z,82.58
2023-04-01T03:31:43.487Z,82.37
2023-04-01T03:32:45.195Z,82.62
2023-04-01T03:33:46.827Z,82.33
2023-04-01T03:34:48.554Z,82.71
2023-04-01T03:35:53.215Z,82.48
2023-04-01T03:36:54.940Z,82.65
2023-04-01T03:37:56.581Z,82.31
2023-04-01T03:38:58.234Z,82.26
2023-04-01T03:39:59.821Z,82.52
2023-04-01T03:41:01.566Z,82.60
2023-04-01T03:42:03.174Z,82.33
2023-04-01T03:43:09.198Z,82.57
2023-04-01T03:44:10.946Z,82.46
2023-04-01T03:45:13.119Z,82.55
2023-04-01T03:46:21.315Z,82.90
2023-04-01T03:47:23.052Z,82.96
2023-04-01T03:48:25.052Z,83.25
2023-04-01T03:49:26.690Z,83.15
2023-04-01T03:50:30.013Z,83.18
2023-04-01T03:51:32.706Z,83.20
2023-04-01T03:52:34.744Z,83.29
2023-04-01T03:53:36.435Z,83.29
2023-04-01T03:54:38.378Z,83.27
2023-04-01T03:55:40.050Z,83.14
2023-04-01T03:56:41.694Z,83.06
2023-04-01T03:57:43.312Z,83.21
2023-04-01T03:58:44.996Z,83.23
2023-04-01T03:59:46.647Z,83.39
2023-04-01T04:00:48.259Z,83.13
2023-04-01T04:01:49.857Z,83.07
2023-04-01T04:02:51.647Z,83.08
2023-04-01T04:03:53.746Z,83.47
2023-04-01T04:04:55.630Z,83.34
2023-04-01T04:05:57.637Z,83.47
2023-04-01T04:06:59.288Z,83.48
2023-04-01T04:08:00.906Z,83.47
2023-04-01T04:09:02.586Z,83.37
2023-04-01T04:10:04.461Z,83.63
2023-04-01T04:11:06.176Z,83.34
2023-04-01T04:12:07.772Z,83.48
2023-04-01T04:13:09.450Z,83.15
2023-04-01T04:14:11.113Z,83.40
2023-04-01T04:15:12.922Z,83.07
2023-04-01T04:16:16.383Z,83.38
2023-04-01T04:17:18.085Z,83.25
2023-04-01T04:18:19.712Z,83.43
2023-04-01T04:19:21.365Z,83.34
2023-04-01T04:20:22.994Z,83.77
2023-04-01T04:21:24.737Z,83.76
2023-04-01T04:22:26.342Z,83.73
2023-04-01T04:23:29.386Z,83.73
2023-04-01T04:24:31.154Z,83.79
2023-04-01T04:25:33.067Z,84.04
2023-04-01T04:26:34.892Z,84.23
2023-04-01T04:27:36.567Z,83.79
2023-04-01T04:28:38.217Z,84.15
2023-04-01T04:29:39.827Z,84.18
2023-04-01T04:30:41.484Z,84.09
2023-04-01T04:31:44.259Z,84.59
2023-04-01T04:32:46.095Z,84.63
2023-04-01T04:33:47.679Z,84.42
2023-04-01T04:34:49.288Z,84.56
2023-04-01T04:35:51.006Z,84.70
2023-04-01T04:36:52.640Z,84.85
2023-04-01T04:37:54.266Z,84.88
2023-04-01T04:38:55.932Z,84.91
2023-04-01T04:39:57.548Z,85.20
2023-04-01T04:40:59.210Z,85.16
2023-04-01T04:42:00.821Z,84.36
2023-04-01T04:43:02.413Z,84.88
2023-04-01T04:44:04.108Z,84.33
2023-04-01T04:45:06.426Z,84.51
2023-04-01T04:46:11.515Z,85.08
2023-04-01T04:47:13.319Z,85.73
2023-04-01T04:48:19.509Z,85.39
2023-04-01T04:49:21.315Z,85.29
2023-04-01T04:50:22.923Z,85.26
2023-04-01T04:51:24.555Z,85.38
2023-04-01T04:52:26.914Z,85.91
2023-04-01T04:53:28.579Z,86.03
2023-04-01T04:54:30.542Z,85.89
2023-04-01T04:55:32.731Z,85.70
2023-04-01T04:56:34.636Z,85.56
2023-04-01T04:57:36.272Z,85.38
2023-04-01T04:58:38.633Z,85.49
2023-04-01T04:59:40.220Z,85.21
2023-04-01T05:00:42.034Z,83.92
2023-04-01T05:01:43.718Z,82.62
2023-04-01T05:02:45.538Z,81.29
2023-04-01T05:03:47.665Z,81.24
2023-04-01T05:04:49.990Z,81.53
2023-04-01T05:05:52.797Z,80.95
2023-04-01T05:06:54.418Z,81.04
2023-04-01T05:07:56.003Z,81.29
2023-04-01T05:08:58.046Z,80.84
2023-04-01T05:09:59.660Z,80.32
2023-04-01T05:11:02.319Z,80.33
2023-04-01T05:12:04.098Z,80.18
2023-04-01T05:13:05.912Z,81.28
2023-04-01T05:14:07.557Z,81.21
2023-04-01T05:15:09.654Z,81.19
2023-04-01T05:16:12.318Z,80.95
2023-04-01T05:17:14.011Z,80.12
2023-04-01T05:18:15.578Z,80.99
2023-04-01T05:19:17.183Z,81.31
2023-04-01T05:20:18.840Z,81.02
2023-04-01T05:21:20.818Z,81.04
2023-04-01T05:22:22.421Z,81.00
2023-04-01T05:23:24.409Z,81.06
2023-04-01T05:24:26.116Z,80.99
2023-04-01T05:25:27.857Z,81.24
2023-04-01T05:26:29.618Z,80.74
2023-04-01T05:27:31.306Z,80.92
2023-04-01T05:28:32.902Z,81.13
2023-04-01T05:29:34.655Z,80.67
2023-04-01T05:30:36.464Z,80.64
2023-04-01T05:31:38.286Z,80.89
2023-04-01T05:32:40.237Z,80.54
2023-04-01T05:33:41.934Z,82.70
2023-04-01T05:34:43.616Z,83.69
2023-04-01T05:35:45.865Z,84.30
2023-04-01T05:36:47.486Z,84.05
2023-04-01T05:37:49.071Z,83.70
2023-04-01T05:38:51.638Z,83.65
2023-04-01T05:39:53.223Z,84.19
2023-04-01T05:41:00.688Z,83.73
2023-04-01T05:42:02.290Z,83.38
2023-04-01T05:43:03.889Z,82.51
2023-04-01T05:44:05.828Z,80.50
2023-04-01T05:45:07.968Z,79.66
2023-04-01T05:46:09.706Z,79.04
2023-04-01T05:47:11.346Z,79.34
2023-04-01T05:48:12.972Z,79.42
2023-04-01T05:49:14.556Z,79.17
2023-04-01T05:50:16.320Z,79.29
2023-04-01T05:51:17.966Z,78.88
2023-04-01T05:52:19.669Z,78.14
2023-04-01T05:53:21.252Z,78.95
2023-04-01T05:54:22.966Z,78.47
2023-04-01T05:55:24.630Z,78.30
2023-04-01T05:56:26.282Z,77.97
2023-04-01T05:57:28.015Z,77.27
2023-04-01T05:58:29.668Z,76.46
2023-04-01T05:59:32.349Z,76.81
2023-04-01T06:00:33.940Z,77.69
2023-04-01T06:01:35.586Z,76.64
2023-04-01T06:02:38.751Z,76.16
2023-04-01T06:03:40.568Z,76.70
2023-04-01T06:04:42.567Z,77.20
2023-04-01T06:05:44.705Z,77.12
2023-04-01T06:06:46.405Z,76.64
2023-04-01T06:07:48.198Z,76.94
2023-04-01T06:08:49.794Z,77.28
2023-04-01T06:09:51.486Z,76.83
2023-04-01T06:11:01.915Z,76.48
2023-04-01T06:12:22.490Z,76.14
2023-04-01T06:13:33.648Z,76.82
2023-04-01T06:14:50.355Z,77.84
2023-04-01T06:15:51.931Z,77.58
2023-04-01T06:17:00.939Z,77.61
2023-04-01T06:18:27.205Z,77.45
2023-04-01T06:19:41.448Z,78.06
2023-04-01T06:21:03.991Z,77.42
2023-04-01T06:22:31.350Z,76.70
2023-04-01T06:23:46.139Z,76.42
2023-04-01T06:25:06.897Z,76.85
2023-04-01T06:26:30.789Z,76.83
2023-04-01T06:27:34.997Z,75.75
2023-04-01T06:28:52.566Z,76.51
2023-04-01T06:30:17.773Z,76.35
2023-04-01T06:31:37.450Z,77.04
2023-04-01T06:32:46.447Z,76.35
2023-04-01T06:33:58.440Z,76.67
2023-04-01T06:35:08.846Z,77.13
2023-04-01T06:36:22.955Z,76.66
2023-04-01T06:37:27.317Z,75.95
2023-04-01T06:38:56.178Z,76.04
2023-04-01T06:40:36.230Z,74.47
2023-04-01T06:41:49.664Z,75.22
2023-04-01T06:43:06.433Z,76.11
2023-04-01T06:44:45.092Z,74.48
2023-04-01T06:46:05.106Z,74.66
2023-04-01T06:47:47.580Z,74.32
2023-04-01T06:49:18.367Z,73.42
2023-04-01T06:50:31.969Z,74.37
2023-04-01T06:51:57.785Z,74.65
2023-04-01T06:53:02.460Z,75.26
2023-04-01T06:54:09.744Z,73.86
2023-04-01T06:55:38.706Z,73.87
2023-04-01T06:56:41.987Z,74.49
2023-04-01T06:57:45.090Z,73.21
2023-04-01T06:58:52.904Z,73.02
2023-04-01T06:59:56.031Z,72.75
2023-04-01T07:00:58.979Z,73.38
2023-04-01T07:02:07.156Z,72.90
2023-04-01T07:03:13.310Z,73.80
2023-04-01T07:04:20.914Z,74.15
2023-04-01T07:05:22.609Z,72.94
2023-04-01T07:06:27.142Z,72.49
2023-04-01T07:07:35.033Z,73.12
2023-04-01T07:08:38.968Z,72.39
2023-04-01T07:09:42.621Z,73.30
2023-04-01T07:10:48.424Z,71.81
2023-04-01T07:11:50.087Z,70.75
2023-04-01T07:12:54.159Z,71.92
2023-04-01T07:13:58.743Z,71.67
2023-04-01T07:15:07.688Z,71.60
2023-04-01T07:16:15.165Z,71.42
2023-04-01T07:17:30.966Z,70.72
2023-04-01T07:18:39.862Z,71.13
2023-04-01T07:19:53.756Z,71.38
2023-04-01T07:20:55.414Z,70.88
2023-04-01T07:22:03.173Z,71.08
2023-04-01T07:23:07.334Z,69.84
2023-04-01T07:24:17.110Z,70.50
2023-04-01T07:25:26.262Z,70.73
2023-04-01T07:26:27.867Z,70.38
2023-04-01T07:27:29.478Z,70.54
2023-04-01T07:28:32.117Z,68.70
2023-04-01T07:29:33.723Z,68.50
2023-04-01T07:31:01.657Z,69.41
2023-04-01T07:32:11.683Z,68.83
2023-04-01T07:33:34.660Z,69.42
2023-04-01T07:35:08.787Z,70.52
2023-04-01T07:36:16.302Z,69.41
2023-04-01T07:37:26.818Z,70.49
2023-04-01T07:38:41.786Z,70.87
2023-04-01T07:40:05.577Z,70.55
2023-04-01T07:41:16.429Z,70.00
2023-04-01T07:42:28.651Z,71.04
2023-04-01T07:43:48.823Z,70.52
2023-04-01T07:44:59.406Z,70.88
2023-04-01T07:46:19.569Z,70.82
2023-04-01T07:47:27.281Z,69.80
2023-04-01T07:48:34.344Z,70.61
2023-04-01T07:49:40.153Z,71.28
2023-04-01T07:50:41.764Z,71.25
2023-04-01T07:52:10.249Z,69.94
2023-04-01T07:53:26.919Z,70.17
2023-04-01T07:54:50.048Z,69.63
2023-04-01T07:56:13.049Z,71.05
2023-04-01T07:57:22.366Z,69.63
2023-04-01T07:58:53.294Z,69.63
2023-04-01T08:00:00.146Z,70.37
2023-04-01T08:01:13.624Z,70.62
2023-04-01T08:02:44.290Z,69.92
2023-04-01T08:03:55.205Z,69.79
2023-04-01T08:05:13.979Z,68.68
2023-04-01T08:06:34.324Z,68.43
2023-04-01T08:07:51.082Z,68.69
2023-04-01T08:09:11.377Z,68.36
2023-04-01T08:10:23.448Z,67.99
2023-04-01T08:11:36.614Z,68.33
2023-04-01T08:13:28.939Z,68.73
2023-04-01T08:15:02.992Z,69.88
2023-04-01T08:16:29.062Z,68.36
2023-04-01T08:17:52.178Z,66.85
2023-04-01T08:19:06.725Z,67.23
2023-04-01T08:20:27.183Z,67.59
2023-04-01T08:21:31.343Z,67.53
2023-04-01T08:22:52.670Z,66.81
2023-04-01T08:23:58.611Z,66.62
2023-04-01T08:25:03.662Z,67.61
2023-04-01T08:26:11.706Z,66.49
2023-04-01T08:27:38.238Z,67.36
2023-04-01T08:28:46.135Z,66.40
2023-04-01T08:29:55.803Z,67.17
2023-04-01T08:31:04.237Z,67.00
2023-04-01T08:32:27.651Z,67.69
2023-04-01T08:33:30.600Z,67.17
2023-04-01T08:34:35.359Z,66.87
2023-04-01T08:36:06.469Z,66.58
2023-04-01T08:37:12.228Z,65.97
2023-04-01T08:38:43.974Z,66.99
2023-04-01T08:39:55.910Z,66.46
2023-04-01T08:41:13.340Z,67.91
2023-04-01T08:43:05.697Z,67.89
2023-04-01T08:44:31.297Z,67.79
2023-04-01T08:45:54.354Z,68.04
2023-04-01T08:47:21.699Z,68.17
2023-04-01T08:48:42.049Z,67.12
2023-04-01T08:49:52.901Z,66.50
2023-04-01T08:51:06.770Z,66.82
2023-04-01T08:52:28.605Z,66.65
2023-04-01T08:53:48.882Z,66.28
2023-04-01T08:55:11.722Z,66.56
2023-04-01T08:56:19.742Z,67.44
2023-04-01T08:57:39.194Z,66.36
2023-04-01T08:59:05.114Z,67.02
2023-04-01T09:00:28.886Z,67.03
2023-04-01T09:01:48.870Z,67.58
2023-04-01T09:03:12.415Z,67.97
2023-04-01T09:04:32.319Z,67.23
2023-04-01T09:05:56.833Z,67.46
2023-04-01T09:07:04.289Z,66.24
2023-04-01T09:08:47.202Z,66.50
2023-04-01T09:10:32.387Z,66.84
2023-04-01T09:11:53.359Z,66.89
2023-04-01T09:13:10.054Z,66.75
2023-04-01T09:14:24.503Z,65.50
2023-04-01T09:15:50.631Z,65.53
2023-04-01T09:17:20.068Z,66.06
2023-04-01T09:18:21.768Z,64.95
2023-04-01T09:19:32.277Z,65.89
2023-04-01T09:20:39.633Z,66.43
2023-04-01T09:22:11.925Z,64.58
2023-04-01T09:23:41.861Z,64.85
2023-04-01T09:25:08.045Z,64.42
2023-04-01T09:26:12.494Z,65.77
2023-04-01T09:27:30.268Z,65.98
2023-04-01T09:28:47.567Z,65.91
2023-04-01T09:30:08.084Z,65.91
2023-04-01T09:31:49.141Z,64.85
2023-04-01T09:33:03.779Z,64.30
2023-04-01T09:34:32.817Z,64.19
2023-04-01T09:35:51.987Z,64.35
2023-04-01T09:37:31.179Z,64.03
2023-04-01T09:38:56.870Z,64.25
2023-04-01T09:40:01.381Z,63.26
2023-04-01T09:41:13.722Z,64.09
2023-04-01T09:42:30.282Z,64.21
2023-04-01T09:43:34.940Z,64.30
2023-04-01T09:44:38.118Z,62.87
2023-04-01T09:45:59.988Z,63.74
2023-04-01T09:47:24.095Z,64.45
2023-04-01T09:48:51.851Z,64.28
2023-04-01T09:50:14.985Z,63.98
2023-04-01T09:51:31.639Z,63.54
2023-04-01T09:52:46.508Z,63.40
2023-04-01T09:54:13.641Z,63.73
2023-04-01T09:55:21.493Z,63.87
2023-04-01T09:56:47.782Z,63.42
2023-04-01T09:58:19.010Z,63.87
2023-04-01T09:59:56.189Z,63.82
2023-04-01T10:01:19.486Z,63.02
2023-04-01T10:02:32.987Z,63.63
2023-04-01T10:04:02.996Z,63.62
2023-04-01T10:05:29.198Z,63.00
2023-04-01T10:06:57.106Z,62.54
2023-04-01T10:08:35.957Z,63.33
2023-04-01T10:10:02.214Z,63.81
2023-04-01T10:11:11.557Z,63.73
2023-04-01T10:12:20.690Z,63.88
2023-04-01T10:14:04.615Z,63.39
2023-04-01T10:15:20.993Z,64.09
2023-04-01T10:16:25.883Z,64.62
2023-04-01T10:17:58.467Z,63.49
2023-04-01T10:19:15.148Z,64.44
2023-04-01T10:20:42.404Z,65.11
2023-04-01T10:21:56.149Z,64.84
2023-04-01T10:23:14.769Z,64.46
2023-04-01T10:24:47.275Z,63.70
2023-04-01T10:26:28.992Z,63.27
2023-04-01T10:27:52.606Z,62.61
2023-04-01T10:29:02.059Z,61.42
2023-04-01T10:30:25.485Z,62.98
2023-04-01T10:31:45.057Z,62.98
2023-04-01T10:33:01.526Z,61.95
2023-04-01T10:34:38.053Z,62.19
2023-04-01T10:35:58.507Z,61.67
2023-04-01T10:37:02.724Z,60.87
2023-04-01T10:38:32.035Z,61.46
2023-04-01T10:39:50.564Z,62.05
2023-04-01T10:41:19.229Z,61.70
2023-04-01T10:42:45.387Z,61.93
2023-04-01T10:44:10.594Z,62.33
2023-04-01T10:45:32.031Z,62.39
2023-04-01T10:46:44.134Z,62.22
2023-04-01T10:48:03.633Z,62.73
2023-04-01T10:49:26.683Z,63.62
2023-04-01T10:51:05.547Z,63.77
2023-04-01T10:52:33.045Z,62.22
2023-04-01T10:54:08.698Z,61.72
2023-04-01T10:55:19.490Z,61.79
2023-04-01T10:56:49.395Z,62.48
2023-04-01T10:58:09.741Z,60.70
2023-04-01T10:59:33.764Z,61.57
2023-04-01T11:01:13.212Z,61.80
2023-04-01T11:02:52.506Z,61.09
2023-04-01T11:04:22.154Z,61.18
2023-04-01T11:05:45.229Z,62.03
2023-04-01T11:07:04.983Z,61.37
2023-04-01T11:08:31.213Z,61.81
2023-04-01T11:10:11.167Z,62.30
2023-04-01T11:11:29.536Z,63.41
2023-04-01T11:12:49.639Z,62.52
2023-04-01T11:14:18.738Z,62.82
2023-04-01T11:15:29.548Z,62.01
2023-04-01T11:16:34.022Z,63.37
2023-04-01T11:18:06.173Z,62.61
2023-04-01T11:19:22.578Z,62.76
2023-04-01T11:20:24.220Z,61.78
2023-04-01T11:21:56.736Z,60.69
2023-04-01T11:23:25.897Z,61.59
2023-04-01T11:24:45.852Z,60.65
2023-04-01T11:26:04.882Z,61.31
2023-04-01T11:27:31.447Z,59.78
2023-04-01T11:28:45.150Z,60.16
2023-04-01T11:30:18.570Z,58.93
2023-04-01T11:31:57.669Z,58.77
2023-04-01T11:33:04.002Z,59.14
2023-04-01T11:34:12.150Z,59.16
2023-04-01T11:35:25.735Z,59.06
2023-04-01T11:36:52.784Z,59.30
2023-04-01T11:38:36.172Z,59.93
2023-04-01T11:40:04.637Z,60.44
2023-04-01T11:41:31.795Z,60.61
2023-04-01T11:42:50.295Z,61.85
2023-04-01T11:44:10.400Z,62.58
2023-04-01T11:45:15.002Z,61.63
2023-04-01T11:46:20.897Z,62.85
2023-04-01T11:47:25.762Z,62.49
2023-04-01T11:48:46.197Z,62.98
2023-04-01T11:49:51.136Z,62.84
2023-04-01T11:50:58.497Z,63.36
2023-04-01T11:52:29.415Z,61.66
2023-04-01T11:53:33.581Z,61.73
2023-04-01T11:54:57.635Z,62.44
2023-04-01T11:56:23.877Z,62.18
2023-04-01T11:57:39.703Z,61.24
2023-04-01T11:58:58.929Z,61.04
2023-04-01T12:00:15.860Z,61.82
2023-04-01T12:01:28.067Z,60.22
2023-04-01T12:03:08.313Z,60.34
2023-04-01T12:04:49.810Z,60.99
2023-04-01T12:06:12.781Z,60.50
2023-04-01T12:07:53.265Z,60.31
2023-04-01T12:09:09.919Z,60.57
2023-04-01T12:10:20.654Z,60.95
2023-04-01T12:11:25.271Z,60.97
2023-04-01T12:12:33.970Z,59.69
2023-04-01T12:13:52.632Z,59.82
2023-04-01T12:15:12.049Z,60.67
2023-04-01T12:16:16.797Z,60.49
2023-04-01T12:17:27.641Z,60.11
2023-04-01T12:18:36.225Z,60.78
2023-04-01T12:19:46.196Z,59.64
2023-04-01T12:21:16.786Z,59.90
2023-04-01T12:22:36.793Z,59.54
2023-04-01T12:24:04.521Z,59.22
2023-04-01T12:25:38.122Z,59.26
2023-04-01T12:26:58.276Z,58.76
2023-04-01T12:28:15.717Z,58.81
2023-04-01T12:29:54.715Z,58.47
2023-04-01T12:31:16.680Z,59.27
2023-04-01T12:32:27.254Z,58.72
2023-04-01T12:33:52.311Z,58.12
2023-04-01T12:35:26.247Z,58.34
2023-04-01T12:36:41.381Z,59.48
2023-04-01T12:38:15.567Z,58.91
2023-04-01T12:39:46.216Z,59.03
2023-04-01T12:41:04.256Z,59.73
2023-04-01T12:42:12.621Z,60.71
2023-04-01T12:43:29.088Z,59.68
2023-04-01T12:44:51.822Z,60.11
2023-04-01T12:46:04.912Z,60.91
2023-04-01T12:47:25.210Z,61.73
2023-04-01T12:48:42.161Z,62.23
2023-04-01T12:50:09.043Z,62.07
2023-04-01T12:51:30.738Z,61.47
2023-04-01T12:52:44.329Z,61.90
2023-04-01T12:54:09.665Z,62.71
2023-04-01T12:55:41.979Z,61.73
2023-04-01T12:57:12.041Z,61.32
2023-04-01T12:58:13.736Z,60.76
2023-04-01T12:59:33.135Z,61.54
2023-04-01T13:01:25.453Z,61.92
2023-04-01T13:02:47.408Z,61.86
2023-04-01T13:04:06.204Z,61.23
2023-04-01T13:05:22.499Z,61.92
2023-04-01T13:07:12.461Z,61.86
2023-04-01T13:08:25.557Z,61.08
2023-04-01T13:10:02.043Z,60.70
2023-04-01T13:11:21.782Z,60.05
2023-04-01T13:12:46.502Z,59.78
2023-04-01T13:14:15.826Z,60.05
2023-04-01T13:15:36.452Z,60.56
2023-04-01T13:16:41.097Z,61.37
2023-04-01T13:17:48.304Z,60.54
2023-04-01T13:19:02.080Z,59.95
2023-04-01T13:20:08.449Z,59.73
2023-04-01T13:21:16.179Z,59.73
2023-04-01T13:22:41.113Z,59.89
2023-04-01T13:24:11.689Z,59.89
2023-04-01T13:25:54.468Z,59.61
2023-04-01T13:27:13.072Z,60.48
2023-04-01T13:28:42.890Z,61.14
2023-04-01T13:29:49.350Z,60.23
2023-04-01T13:31:01.765Z,59.74
2023-04-01T13:32:22.270Z,60.03
2023-04-01T13:33:31.003Z,59.09
2023-04-01T13:35:03.621Z,59.53
2023-04-01T13:36:09.225Z,59.40
2023-04-01T13:37:25.806Z,59.09
2023-04-01T13:38:42.651Z,60.25
2023-04-01T13:39:50.565Z,60.59
2023-04-01T13:41:12.444Z,60.83
2023-04-01T13:42:25.996Z,60.46
2023-04-01T13:43:41.110Z,61.26
2023-04-01T13:44:51.325Z,60.74
2023-04-01T13:46:11.050Z,60.37
2023-04-01T13:47:31.803Z,60.05
2023-04-01T13:48:51.325Z,60.71
2023-04-01T13:49:58.787Z,60.46
2023-04-01T13:51:09.371Z,60.94
2023-04-01T13:52:16.268Z,59.97
2023-04-01T13:53:39.615Z,59.39
2023-04-01T13:54:58.457Z,59.73
2023-04-01T13:56:22.651Z,59.96
2023-04-01T13:57:40.470Z,59.92
2023-04-01T13:58:47.288Z,60.26
2023-04-01T13:59:57.860Z,60.36
2023-04-01T14:01:25.041Z,59.60
2023-04-01T14:02:32.216Z,60.43
2023-04-01T14:03:33.995Z,61.01
2023-04-01T14:04:49.216Z,62.33
2023-04-01T14:06:15.571Z,63.18
2023-04-01T14:07:32.411Z,64.68
2023-04-01T14:09:04.679Z,66.05
2023-04-01T14:10:14.995Z,66.29
2023-04-01T14:11:35.044Z,67.12
2023-04-01T14:12:50.181Z,67.44
2023-04-01T14:14:30.613Z,67.71
2023-04-01T14:15:50.718Z,69.66
2023-04-01T14:17:10.959Z,68.08
2023-04-01T14:18:18.887Z,67.09
2023-04-01T14:19:39.981Z,67.39
2023-04-01T14:20:41.902Z,67.45
2023-04-01T14:21:47.371Z,67.39
2023-04-01T14:23:06.971Z,67.42
2023-04-01T14:24:19.020Z,66.08
2023-04-01T14:25:31.423Z,65.54
2023-04-01T14:26:55.310Z,65.94
2023-04-01T14:28:00.387Z,64.78
2023-04-01T14:29:44.196Z,64.99
2023-04-01T14:31:10.480Z,64.36
2023-04-01T14:32:44.506Z,63.65
2023-04-01T14:34:07.094Z,64.25
2023-04-01T14:35:43.057Z,64.23
2023-04-01T14:36:47.746Z,64.24
2023-04-01T14:38:10.508Z,63.01
2023-04-01T14:39:40.413Z,62.72
2023-04-01T14:40:52.038Z,62.14
2023-04-01T14:42:22.125Z,62.48
2023-04-01T14:43:49.005Z,63.34
2023-04-01T14:45:13.719Z,62.89
2023-04-01T14:46:24.257Z,62.92
2023-04-01T14:48:01.675Z,63.52
2023-04-01T14:49:16.948Z,62.72
2023-04-01T14:50:20.204Z,63.15
2023-04-01T14:51:32.034Z,62.55
2023-04-01T14:52:37.962Z,62.95
2023-04-01T14:53:45.324Z,62.21
2023-04-01T14:54:47.873Z,62.57
2023-04-01T14:55:52.345Z,62.60
2023-04-01T14:57:14.007Z,61.80
2023-04-01T14:58:20.109Z,61.48
2023-04-01T14:59:22.322Z,61.61
2023-04-01T15:00:23.935Z,60.33
2023-04-01T15:01:47.596Z,60.30
2023-04-01T15:03:04.784Z,61.83
2023-04-01T15:04:21.494Z,59.06
2023-04-01T15:06:01.956Z,59.89
2023-04-01T15:07:22.178Z,56.29
2023-04-01T15:08:26.626Z,57.28
2023-04-01T15:09:53.084Z,55.47
2023-04-01T15:11:17.603Z,54.84
2023-04-01T15:12:31.892Z,54.25
2023-04-01T15:13:42.229Z,54.35
2023-04-01T15:15:04.083Z,54.82
2023-04-01T15:16:42.670Z,54.85
2023-04-01T15:18:21.187Z,54.79
2023-04-01T15:19:44.895Z,55.23
2023-04-01T15:21:13.313Z,55.32
2023-04-01T15:22:40.123Z,55.40
2023-04-01T15:23:51.224Z,56.06
2023-04-01T15:25:05.068Z,56.01
2023-04-01T15:26:21.694Z,55.33